sensor_id;sensor_type;location;lat;lon;timestamp;temperature;humidity
37310;DHT22;23195;47.744;7.358;2023-05-10T00:01:57;14.00;99.90
37310;DHT22;23195;47.744;7.358;2023-05-10T00:04:35;14.10;99.90
37310;DHT22;23195;47.744;7.358;2023-05-10T00:07:14;14.00;99.90
37310;DHT22;23195;47.744;7.358;2023-05-10T00:09:50;13.90;99.90
37310;DHT22;23195;47.744;7.358;2023-05-10T00:12:30;14.00;99.90
37310;DHT22;23195;47.744;7.358;2023-05-10T00:15:11;13.70;99.90
37310;DHT22;23195;47.744;7.358;2023-05-10T00:18:15;13.90;99.90
37310;DHT22;23195;47.744;7.358;2023-05-10T00:21:04;13.90;99.90
37310;DHT22;23195;47.744;7.358;2023-05-10T00:23:36;13.90;99.90
37310;DHT22;23195;47.744;7.358;2023-05-10T00:26:09;13.50;99.90
37310;DHT22;23195;47.744;7.358;2023-05-10T00:28:43;13.90;99.90
37310;DHT22;23195;47.744;7.358;2023-05-10T00:31:40;13.80;99.90
37310;DHT22;23195;47.744;7.358;2023-05-10T00:34:14;13.70;99.90
37310;DHT22;23195;47.744;7.358;2023-05-10T00:36:40;13.70;99.90
37310;DHT22;23195;47.744;7.358;2023-05-10T00:39:16;13.70;99.90
37310;DHT22;23195;47.744;7.358;2023-05-10T00:42:00;13.60;99.90
37310;DHT22;23195;47.744;7.358;2023-05-10T00:44:44;13.60;99.90
37310;DHT22;23195;47.744;7.358;2023-05-10T00:47:22;13.70;99.90
37310;DHT22;23195;47.744;7.358;2023-05-10T00:50:02;13.70;99.90
37310;DHT22;23195;47.744;7.358;2023-05-10T00:52:49;13.80;99.90
37310;DHT22;23195;47.744;7.358;2023-05-10T00:55:32;13.80;99.90
37310;DHT22;23195;47.744;7.358;2023-05-10T00:58:23;13.50;99.90
37310;DHT22;23195;47.744;7.358;2023-05-10T01:00:57;13.80;99.90
37310;DHT22;23195;47.744;7.358;2023-05-10T01:03:36;13.80;99.90
37310;DHT22;23195;47.744;7.358;2023-05-10T01:06:27;15.40;99.90
37310;DHT22;23195;47.744;7.358;2023-05-10T01:09:14;13.80;99.90
37310;DHT22;23195;47.744;7.358;2023-05-10T01:11:55;13.90;99.90
37310;DHT22;23195;47.744;7.358;2023-05-10T01:14:35;13.80;99.90
37310;DHT22;23195;47.744;7.358;2023-05-10T01:17:24;13.80;99.90
37310;DHT22;23195;47.744;7.358;2023-05-10T01:20:05;13.80;99.90
37310;DHT22;23195;47.744;7.358;2023-05-10T01:36:42;13.50;99.90
37310;DHT22;23195;47.744;7.358;2023-05-10T01:43:00;13.30;99.90
37310;DHT22;23195;47.744;7.358;2023-05-10T01:48:47;13.20;99.90
37310;DHT22;23195;47.744;7.358;2023-05-10T01:51:31;13.20;99.90
37310;DHT22;23195;47.744;7.358;2023-05-10T01:54:14;13.20;99.90
37310;DHT22;23195;47.744;7.358;2023-05-10T01:57:19;13.20;99.90
37310;DHT22;23195;47.744;7.358;2023-05-10T01:59:53;13.00;99.90
37310;DHT22;23195;47.744;7.358;2023-05-10T02:02:37;13.10;99.90
37310;DHT22;23195;47.744;7.358;2023-05-10T02:05:15;13.10;99.90
37310;DHT22;23195;47.744;7.358;2023-05-10T02:08:10;13.10;99.90
37310;DHT22;23195;47.744;7.358;2023-05-10T02:11:02;13.10;99.90
37310;DHT22;23195;47.744;7.358;2023-05-10T02:13:32;13.10;99.90
37310;DHT22;23195;47.744;7.358;2023-05-10T02:16:26;13.10;99.90
37310;DHT22;23195;47.744;7.358;2023-05-10T02:19:15;13.10;99.90
37310;DHT22;23195;47.744;7.358;2023-05-10T02:21:46;13.10;99.90
37310;DHT22;23195;47.744;7.358;2023-05-10T02:24:27;13.10;99.90
37310;DHT22;23195;47.744;7.358;2023-05-10T02:27:09;13.10;99.90
37310;DHT22;23195;47.744;7.358;2023-05-10T02:29:41;13.40;99.90
37310;DHT22;23195;47.744;7.358;2023-05-10T02:32:17;13.10;99.90
37310;DHT22;23195;47.744;7.358;2023-05-10T02:34:54;13.10;99.90
37310;DHT22;23195;47.744;7.358;2023-05-10T02:37:49;13.20;99.90
37310;DHT22;23195;47.744;7.358;2023-05-10T02:40:40;13.10;99.90
37310;DHT22;23195;47.744;7.358;2023-05-10T02:43:13;13.10;99.90
37310;DHT22;23195;47.744;7.358;2023-05-10T02:45:57;13.10;99.90
37310;DHT22;23195;47.744;7.358;2023-05-10T02:48:45;13.00;99.90
37310;DHT22;23195;47.744;7.358;2023-05-10T02:51:34;13.00;99.90
37310;DHT22;23195;47.744;7.358;2023-05-10T02:54:31;12.90;99.90
37310;DHT22;23195;47.744;7.358;2023-05-10T02:57:13;12.80;99.90
37310;DHT22;23195;47.744;7.358;2023-05-10T02:59:51;12.90;99.90
37310;DHT22;23195;47.744;7.358;2023-05-10T03:02:28;12.80;99.90
37310;DHT22;23195;47.744;7.358;2023-05-10T03:04:59;12.90;99.90
37310;DHT22;23195;47.744;7.358;2023-05-10T03:07:53;12.80;99.90
37310;DHT22;23195;47.744;7.358;2023-05-10T03:10:41;12.80;99.90
37310;DHT22;23195;47.744;7.358;2023-05-10T03:13:29;12.70;99.90
37310;DHT22;23195;47.744;7.358;2023-05-10T03:16:41;12.80;99.90
37310;DHT22;23195;47.744;7.358;2023-05-10T03:19:47;12.70;99.90
37310;DHT22;23195;47.744;7.358;2023-05-10T03:22:50;12.70;99.90
37310;DHT22;23195;47.744;7.358;2023-05-10T03:28:47;11.50;99.90
37310;DHT22;23195;47.744;7.358;2023-05-10T03:31:30;12.60;99.90
37310;DHT22;23195;47.744;7.358;2023-05-10T03:34:01;11.80;99.90
37310;DHT22;23195;47.744;7.358;2023-05-10T03:39:41;12.60;99.90
37310;DHT22;23195;47.744;7.358;2023-05-10T03:42:07;12.60;99.90
37310;DHT22;23195;47.744;7.358;2023-05-10T03:44:43;12.60;99.90
37310;DHT22;23195;47.744;7.358;2023-05-10T03:50:21;12.60;99.90
37310;DHT22;23195;47.744;7.358;2023-05-10T03:52:51;12.60;99.90
37310;DHT22;23195;47.744;7.358;2023-05-10T03:55:27;12.40;99.90
37310;DHT22;23195;47.744;7.358;2023-05-10T03:58:07;12.50;99.90
37310;DHT22;23195;47.744;7.358;2023-05-10T04:00:54;12.80;99.90
37310;DHT22;23195;47.744;7.358;2023-05-10T04:03:30;12.40;99.90
37310;DHT22;23195;47.744;7.358;2023-05-10T04:06:41;12.50;99.90
37310;DHT22;23195;47.744;7.358;2023-05-10T04:09:20;12.50;99.90
37310;DHT22;23195;47.744;7.358;2023-05-10T04:11:56;12.60;99.90
37310;DHT22;23195;47.744;7.358;2023-05-10T04:14:44;12.60;99.90
37310;DHT22;23195;47.744;7.358;2023-05-10T04:17:20;12.70;99.90
37310;DHT22;23195;47.744;7.358;2023-05-10T04:20:32;11.80;99.90
37310;DHT22;23195;47.744;7.358;2023-05-10T04:23:11;12.80;99.90
37310;DHT22;23195;47.744;7.358;2023-05-10T04:25:47;12.80;99.90
37310;DHT22;23195;47.744;7.358;2023-05-10T04:28:28;12.80;99.90
37310;DHT22;23195;47.744;7.358;2023-05-10T04:31:08;12.90;99.90
37310;DHT22;23195;47.744;7.358;2023-05-10T04:33:42;12.70;99.90
37310;DHT22;23195;47.744;7.358;2023-05-10T04:36:26;12.90;99.90
37310;DHT22;23195;47.744;7.358;2023-05-10T04:39:07;12.90;99.90
37310;DHT22;23195;47.744;7.358;2023-05-10T04:41:47;13.00;99.90
37310;DHT22;23195;47.744;7.358;2023-05-10T04:44:26;13.00;99.90
37310;DHT22;23195;47.744;7.358;2023-05-10T04:47:10;13.00;99.90
37310;DHT22;23195;47.744;7.358;2023-05-10T04:49:41;12.90;99.90
37310;DHT22;23195;47.744;7.358;2023-05-10T04:52:34;12.90;99.90
37310;DHT22;23195;47.744;7.358;2023-05-10T04:55:16;12.90;99.90
37310;DHT22;23195;47.744;7.358;2023-05-10T04:57:52;12.80;99.90
37310;DHT22;23195;47.744;7.358;2023-05-10T05:00:33;12.80;99.90
37310;DHT22;23195;47.744;7.358;2023-05-10T05:03:07;12.80;99.90
37310;DHT22;23195;47.744;7.358;2023-05-10T05:05:50;12.90;99.90
37310;DHT22;23195;47.744;7.358;2023-05-10T05:08:28;12.90;99.90
37310;DHT22;23195;47.744;7.358;2023-05-10T05:11:32;12.90;99.90
37310;DHT22;23195;47.744;7.358;2023-05-10T05:14:11;12.80;99.90
37310;DHT22;23195;47.744;7.358;2023-05-10T05:16:49;12.80;99.90
37310;DHT22;23195;47.744;7.358;2023-05-10T05:19:33;12.90;99.90
37310;DHT22;23195;47.744;7.358;2023-05-10T05:22:09;12.90;99.90
37310;DHT22;23195;47.744;7.358;2023-05-10T05:24:55;12.90;99.90
37310;DHT22;23195;47.744;7.358;2023-05-10T05:27:32;13.60;99.90
37310;DHT22;23195;47.744;7.358;2023-05-10T05:29:58;12.90;99.90
37310;DHT22;23195;47.744;7.358;2023-05-10T05:32:44;12.90;99.90
37310;DHT22;23195;47.744;7.358;2023-05-10T05:35:20;12.90;99.90
37310;DHT22;23195;47.744;7.358;2023-05-10T05:38:01;13.20;99.90
37310;DHT22;23195;47.744;7.358;2023-05-10T05:40:31;13.00;99.90
37310;DHT22;23195;47.744;7.358;2023-05-10T05:43:07;13.10;99.90
37310;DHT22;23195;47.744;7.358;2023-05-10T05:45:46;13.20;99.90
37310;DHT22;23195;47.744;7.358;2023-05-10T05:48:11;13.20;99.90
37310;DHT22;23195;47.744;7.358;2023-05-10T05:51:03;13.30;99.90
37310;DHT22;23195;47.744;7.358;2023-05-10T05:53:39;13.50;99.90
37310;DHT22;23195;47.744;7.358;2023-05-10T05:56:16;13.50;99.90
37310;DHT22;23195;47.744;7.358;2023-05-10T05:58:55;13.60;99.90
37310;DHT22;23195;47.744;7.358;2023-05-10T06:01:40;13.40;99.90
37310;DHT22;23195;47.744;7.358;2023-05-10T06:04:22;13.80;99.90
37310;DHT22;23195;47.744;7.358;2023-05-10T06:07:00;13.00;99.90
37310;DHT22;23195;47.744;7.358;2023-05-10T06:09:35;14.00;99.90
37310;DHT22;23195;47.744;7.358;2023-05-10T06:12:11;14.10;99.90
37310;DHT22;23195;47.744;7.358;2023-05-10T06:18:27;14.00;99.90
37310;DHT22;23195;47.744;7.358;2023-05-10T06:24:37;14.20;99.90
37310;DHT22;23195;47.744;7.358;2023-05-10T06:30:36;14.20;99.90
37310;DHT22;23195;47.744;7.358;2023-05-10T06:33:11;14.30;99.90
37310;DHT22;23195;47.744;7.358;2023-05-10T06:36:22;14.60;99.90
37310;DHT22;23195;47.744;7.358;2023-05-10T06:39:14;14.80;99.90
37310;DHT22;23195;47.744;7.358;2023-05-10T06:44:42;14.90;99.90
37310;DHT22;23195;47.744;7.358;2023-05-10T06:47:09;18.00;99.90
37310;DHT22;23195;47.744;7.358;2023-05-10T06:49:35;20.00;99.90
37310;DHT22;23195;47.744;7.358;2023-05-10T06:52:00;20.90;99.90
37310;DHT22;23195;47.744;7.358;2023-05-10T06:54:26;21.90;99.90
37310;DHT22;23195;47.744;7.358;2023-05-10T06:56:52;22.50;99.90
37310;DHT22;23195;47.744;7.358;2023-05-10T06:59:18;22.80;99.90
37310;DHT22;23195;47.744;7.358;2023-05-10T07:01:44;23.80;99.20
37310;DHT22;23195;47.744;7.358;2023-05-10T07:04:10;24.50;96.00
37310;DHT22;23195;47.744;7.358;2023-05-10T07:06:36;24.80;93.00
37310;DHT22;23195;47.744;7.358;2023-05-10T07:09:02;24.50;92.50
37310;DHT22;23195;47.744;7.358;2023-05-10T07:11:28;24.30;92.20
37310;DHT22;23195;47.744;7.358;2023-05-10T07:13:54;24.30;91.20
37310;DHT22;23195;47.744;7.358;2023-05-10T07:19:47;24.90;90.10
37310;DHT22;23195;47.744;7.358;2023-05-10T07:22:28;25.10;88.10
37310;DHT22;23195;47.744;7.358;2023-05-10T07:28:59;25.30;83.70
37310;DHT22;23195;47.744;7.358;2023-05-10T07:31:56;25.60;83.50
37310;DHT22;23195;47.744;7.358;2023-05-10T07:34:57;26.10;80.00
37310;DHT22;23195;47.744;7.358;2023-05-10T07:38:06;25.90;78.40
37310;DHT22;23195;47.744;7.358;2023-05-10T07:41:12;25.70;77.80
37310;DHT22;23195;47.744;7.358;2023-05-10T07:46:59;25.10;78.60
37310;DHT22;23195;47.744;7.358;2023-05-10T07:49:33;24.80;77.70
37310;DHT22;23195;47.744;7.358;2023-05-10T07:59:02;24.80;76.80
37310;DHT22;23195;47.744;7.358;2023-05-10T08:05:19;25.00;75.30
37310;DHT22;23195;47.744;7.358;2023-05-10T08:07:53;25.10;73.40
37310;DHT22;23195;47.744;7.358;2023-05-10T08:10:24;25.10;71.50
37310;DHT22;23195;47.744;7.358;2023-05-10T08:12:54;25.50;69.80
37310;DHT22;23195;47.744;7.358;2023-05-10T08:15:43;25.40;68.30
37310;DHT22;23195;47.744;7.358;2023-05-10T08:18:27;25.40;68.30
37310;DHT22;23195;47.744;7.358;2023-05-10T08:21:00;25.40;68.70
37310;DHT22;23195;47.744;7.358;2023-05-10T08:23:39;25.60;66.70
37310;DHT22;23195;47.744;7.358;2023-05-10T08:26:10;25.60;66.40
37310;DHT22;23195;47.744;7.358;2023-05-10T08:28:41;26.10;66.70
37310;DHT22;23195;47.744;7.358;2023-05-10T08:31:16;26.20;65.70
37310;DHT22;23195;47.744;7.358;2023-05-10T08:33:44;25.60;66.40
37310;DHT22;23195;47.744;7.358;2023-05-10T08:36:15;25.40;67.30
37310;DHT22;23195;47.744;7.358;2023-05-10T08:39:12;25.60;65.30
37310;DHT22;23195;47.744;7.358;2023-05-10T08:41:39;24.90;66.40
37310;DHT22;23195;47.744;7.358;2023-05-10T08:44:10;24.10;67.10
37310;DHT22;23195;47.744;7.358;2023-05-10T08:46:48;24.00;67.90
37310;DHT22;23195;47.744;7.358;2023-05-10T08:49:19;24.50;67.30
37310;DHT22;23195;47.744;7.358;2023-05-10T08:52:05;24.40;68.30
37310;DHT22;23195;47.744;7.358;2023-05-10T08:54:41;24.70;68.70
37310;DHT22;23195;47.744;7.358;2023-05-10T08:57:27;24.40;69.60
37310;DHT22;23195;47.744;7.358;2023-05-10T09:00:12;24.40;68.60
37310;DHT22;23195;47.744;7.358;2023-05-10T09:02:57;24.70;67.50
37310;DHT22;23195;47.744;7.358;2023-05-10T09:05:28;24.20;67.90
37310;DHT22;23195;47.744;7.358;2023-05-10T09:08:10;23.80;70.20
37310;DHT22;23195;47.744;7.358;2023-05-10T09:10:43;23.70;70.50
37310;DHT22;23195;47.744;7.358;2023-05-10T09:16:18;23.90;70.90
37310;DHT22;23195;47.744;7.358;2023-05-10T09:18:49;24.00;71.20
37310;DHT22;23195;47.744;7.358;2023-05-10T09:21:19;23.80;71.50
37310;DHT22;23195;47.744;7.358;2023-05-10T09:23:53;23.90;71.10
37310;DHT22;23195;47.744;7.358;2023-05-10T09:29:43;23.30;70.10
37310;DHT22;23195;47.744;7.358;2023-05-10T09:32:44;22.30;73.80
37310;DHT22;23195;47.744;7.358;2023-05-10T09:35:39;21.20;74.10
37310;DHT22;23195;47.744;7.358;2023-05-10T09:38:13;20.50;75.40
37310;DHT22;23195;47.744;7.358;2023-05-10T09:40:39;19.10;79.80
37310;DHT22;23195;47.744;7.358;2023-05-10T09:43:25;19.00;81.50
37310;DHT22;23195;47.744;7.358;2023-05-10T09:46:09;19.00;82.20
37310;DHT22;23195;47.744;7.358;2023-05-10T09:48:42;18.90;83.20
37310;DHT22;23195;47.744;7.358;2023-05-10T09:51:23;18.70;84.90
37310;DHT22;23195;47.744;7.358;2023-05-10T09:54:17;18.80;85.70
37310;DHT22;23195;47.744;7.358;2023-05-10T09:57:14;20.20;88.40
37310;DHT22;23195;47.744;7.358;2023-05-10T10:00:21;18.50;89.50
37310;DHT22;23195;47.744;7.358;2023-05-10T10:03:19;18.70;89.40
37310;DHT22;23195;47.744;7.358;2023-05-10T10:05:58;18.80;90.30
37310;DHT22;23195;47.744;7.358;2023-05-10T10:09:00;18.70;90.30
37310;DHT22;23195;47.744;7.358;2023-05-10T10:17:47;19.20;87.50
37310;DHT22;23195;47.744;7.358;2023-05-10T10:20:39;19.20;83.90
37310;DHT22;23195;47.744;7.358;2023-05-10T10:23:52;19.90;84.90
37310;DHT22;23195;47.744;7.358;2023-05-10T10:26:44;19.30;83.40
37310;DHT22;23195;47.744;7.358;2023-05-10T10:29:47;19.50;82.80
37310;DHT22;23195;47.744;7.358;2023-05-10T10:35:21;19.90;83.80
37310;DHT22;23195;47.744;7.358;2023-05-10T10:48:25;19.40;89.70
37310;DHT22;23195;47.744;7.358;2023-05-10T10:51:13;19.10;84.00
37310;DHT22;23195;47.744;7.358;2023-05-10T10:54:28;18.80;84.80
37310;DHT22;23195;47.744;7.358;2023-05-10T10:57:20;18.50;86.10
37310;DHT22;23195;47.744;7.358;2023-05-10T11:03:15;18.60;86.10
37310;DHT22;23195;47.744;7.358;2023-05-10T11:05:57;18.60;81.90
37310;DHT22;23195;47.744;7.358;2023-05-10T11:09:12;18.50;81.80
37310;DHT22;23195;47.744;7.358;2023-05-10T11:12:08;18.50;85.00
37310;DHT22;23195;47.744;7.358;2023-05-10T11:15:00;18.30;86.30
37310;DHT22;23195;47.744;7.358;2023-05-10T11:17:37;18.60;88.60
37310;DHT22;23195;47.744;7.358;2023-05-10T11:20:20;18.70;90.10
37310;DHT22;23195;47.744;7.358;2023-05-10T11:23:28;18.60;89.20
37310;DHT22;23195;47.744;7.358;2023-05-10T11:26:18;18.10;90.40
37310;DHT22;23195;47.744;7.358;2023-05-10T11:29:18;18.90;90.60
37310;DHT22;23195;47.744;7.358;2023-05-10T11:32:00;19.00;90.70
37310;DHT22;23195;47.744;7.358;2023-05-10T11:35:11;18.80;90.30
37310;DHT22;23195;47.744;7.358;2023-05-10T11:38:20;18.30;91.60
37310;DHT22;23195;47.744;7.358;2023-05-10T11:41:40;17.20;94.30
37310;DHT22;23195;47.744;7.358;2023-05-10T11:44:35;16.90;98.20
37310;DHT22;23195;47.744;7.358;2023-05-10T11:47:40;17.00;99.70
37310;DHT22;23195;47.744;7.358;2023-05-10T11:50:11;17.20;96.90
37310;DHT22;23195;47.744;7.358;2023-05-10T11:52:45;17.40;96.00
37310;DHT22;23195;47.744;7.358;2023-05-10T11:55:12;17.50;97.70
37310;DHT22;23195;47.744;7.358;2023-05-10T11:58:10;17.80;97.90
37310;DHT22;23195;47.744;7.358;2023-05-10T12:01:04;18.20;98.00
37310;DHT22;23195;47.744;7.358;2023-05-10T12:03:49;18.60;96.70
37310;DHT22;23195;47.744;7.358;2023-05-10T12:10:14;18.80;86.80
37310;DHT22;23195;47.744;7.358;2023-05-10T12:13:15;18.80;89.80
37310;DHT22;23195;47.744;7.358;2023-05-10T12:16:29;19.00;88.30
37310;DHT22;23195;47.744;7.358;2023-05-10T12:26:33;18.60;90.20
37310;DHT22;23195;47.744;7.358;2023-05-10T12:29:19;18.80;88.70
37310;DHT22;23195;47.744;7.358;2023-05-10T12:32:01;19.10;88.90
37310;DHT22;23195;47.744;7.358;2023-05-10T12:34:42;18.90;88.30
37310;DHT22;23195;47.744;7.358;2023-05-10T12:37:30;19.80;88.60
37310;DHT22;23195;47.744;7.358;2023-05-10T12:40:16;19.40;87.90
37310;DHT22;23195;47.744;7.358;2023-05-10T12:42:55;19.80;86.20
37310;DHT22;23195;47.744;7.358;2023-05-10T12:45:34;19.60;83.70
37310;DHT22;23195;47.744;7.358;2023-05-10T12:48:36;19.60;84.00
37310;DHT22;23195;47.744;7.358;2023-05-10T12:51:27;19.80;85.30
37310;DHT22;23195;47.744;7.358;2023-05-10T12:54:35;19.50;87.00
37310;DHT22;23195;47.744;7.358;2023-05-10T12:57:17;18.90;86.30
37310;DHT22;23195;47.744;7.358;2023-05-10T13:00:19;18.50;87.80
37310;DHT22;23195;47.744;7.358;2023-05-10T13:02:56;18.20;90.90
37310;DHT22;23195;47.744;7.358;2023-05-10T13:05:49;17.80;93.90
37310;DHT22;23195;47.744;7.358;2023-05-10T13:08:28;16.60;95.50
37310;DHT22;23195;47.744;7.358;2023-05-10T13:11:02;17.40;97.40
37310;DHT22;23195;47.744;7.358;2023-05-10T13:14:01;17.50;98.40
37310;DHT22;23195;47.744;7.358;2023-05-10T13:16:41;17.60;97.60
37310;DHT22;23195;47.744;7.358;2023-05-10T13:19:16;17.50;99.60
37310;DHT22;23195;47.744;7.358;2023-05-10T13:21:48;17.60;99.80
37310;DHT22;23195;47.744;7.358;2023-05-10T13:24:48;17.60;98.90
37310;DHT22;23195;47.744;7.358;2023-05-10T13:27:48;18.00;98.60
37310;DHT22;23195;47.744;7.358;2023-05-10T13:30:26;18.50;97.40
37310;DHT22;23195;47.744;7.358;2023-05-10T13:33:29;18.70;96.30
37310;DHT22;23195;47.744;7.358;2023-05-10T13:36:14;18.60;94.80
37310;DHT22;23195;47.744;7.358;2023-05-10T13:39:02;18.30;94.80
37310;DHT22;23195;47.744;7.358;2023-05-10T13:45:21;17.90;94.40
37310;DHT22;23195;47.744;7.358;2023-05-10T13:51:48;18.00;94.00
37310;DHT22;23195;47.744;7.358;2023-05-10T13:54:44;18.30;95.20
37310;DHT22;23195;47.744;7.358;2023-05-10T13:57:26;18.50;96.10
37310;DHT22;23195;47.744;7.358;2023-05-10T14:00:07;18.60;95.00
37310;DHT22;23195;47.744;7.358;2023-05-10T14:02:59;18.60;95.60
37310;DHT22;23195;47.744;7.358;2023-05-10T14:05:59;18.60;96.60
37310;DHT22;23195;47.744;7.358;2023-05-10T14:12:07;18.70;97.90
37310;DHT22;23195;47.744;7.358;2023-05-10T14:14:51;18.60;98.60
37310;DHT22;23195;47.744;7.358;2023-05-10T14:17:33;19.00;96.50
37310;DHT22;23195;47.744;7.358;2023-05-10T14:23:46;19.00;95.00
37310;DHT22;23195;47.744;7.358;2023-05-10T14:26:45;18.70;97.00
37310;DHT22;23195;47.744;7.358;2023-05-10T14:29:29;18.30;98.00
37310;DHT22;23195;47.744;7.358;2023-05-10T14:32:08;18.20;97.90
37310;DHT22;23195;47.744;7.358;2023-05-10T14:35:07;18.00;99.20
37310;DHT22;23195;47.744;7.358;2023-05-10T14:38:01;17.30;99.90
37310;DHT22;23195;47.744;7.358;2023-05-10T14:43:25;17.60;99.90
37310;DHT22;23195;47.744;7.358;2023-05-10T14:46:26;17.40;99.90
37310;DHT22;23195;47.744;7.358;2023-05-10T14:48:57;17.80;99.90
37310;DHT22;23195;47.744;7.358;2023-05-10T14:52:06;18.20;99.90
37310;DHT22;23195;47.744;7.358;2023-05-10T15:04:55;18.10;99.90
37310;DHT22;23195;47.744;7.358;2023-05-10T15:10:50;17.50;99.90
37310;DHT22;23195;47.744;7.358;2023-05-10T15:13:58;17.30;99.90
37310;DHT22;23195;47.744;7.358;2023-05-10T15:16:47;16.20;99.90
37310;DHT22;23195;47.744;7.358;2023-05-10T15:19:35;17.40;99.90
37310;DHT22;23195;47.744;7.358;2023-05-10T15:22:27;17.70;99.90
37310;DHT22;23195;47.744;7.358;2023-05-10T15:25:07;18.20;99.90
37310;DHT22;23195;47.744;7.358;2023-05-10T15:28:01;18.40;99.90
37310;DHT22;23195;47.744;7.358;2023-05-10T15:45:35;17.40;99.90
37310;DHT22;23195;47.744;7.358;2023-05-10T15:48:24;17.10;99.90
37310;DHT22;23195;47.744;7.358;2023-05-10T15:50:55;17.60;99.90
37310;DHT22;23195;47.744;7.358;2023-05-10T15:53:23;17.70;99.90
37310;DHT22;23195;47.744;7.358;2023-05-10T15:55:52;18.00;99.90
37310;DHT22;23195;47.744;7.358;2023-05-10T15:58:20;18.10;99.90
37310;DHT22;23195;47.744;7.358;2023-05-10T16:00:46;18.10;99.90
37310;DHT22;23195;47.744;7.358;2023-05-10T16:03:18;18.10;99.90
37310;DHT22;23195;47.744;7.358;2023-05-10T16:05:46;18.20;99.90
37310;DHT22;23195;47.744;7.358;2023-05-10T16:08:26;17.90;99.90
37310;DHT22;23195;47.744;7.358;2023-05-10T16:14:24;17.70;99.90
37310;DHT22;23195;47.744;7.358;2023-05-10T16:20:03;17.60;99.90
37310;DHT22;23195;47.744;7.358;2023-05-10T16:22:35;17.10;99.90
37310;DHT22;23195;47.744;7.358;2023-05-10T16:25:09;17.50;99.90
37310;DHT22;23195;47.744;7.358;2023-05-10T16:30:53;17.50;99.90
37310;DHT22;23195;47.744;7.358;2023-05-10T16:33:54;17.40;99.90
37310;DHT22;23195;47.744;7.358;2023-05-10T16:36:22;17.10;99.90
37310;DHT22;23195;47.744;7.358;2023-05-10T16:39:00;16.90;99.90
37310;DHT22;23195;47.744;7.358;2023-05-10T16:41:39;16.60;99.90
37310;DHT22;23195;47.744;7.358;2023-05-10T16:44:15;16.40;99.90
37310;DHT22;23195;47.744;7.358;2023-05-10T16:46:47;16.30;99.90
37310;DHT22;23195;47.744;7.358;2023-05-10T16:52:59;16.20;99.90
37310;DHT22;23195;47.744;7.358;2023-05-10T16:56:00;16.20;99.90
37310;DHT22;23195;47.744;7.358;2023-05-10T16:58:37;16.10;99.90
37310;DHT22;23195;47.744;7.358;2023-05-10T17:04:21;16.10;99.90
37310;DHT22;23195;47.744;7.358;2023-05-10T17:07:25;16.10;99.90
37310;DHT22;23195;47.744;7.358;2023-05-10T17:10:26;16.20;99.90
37310;DHT22;23195;47.744;7.358;2023-05-10T17:13:07;16.20;99.90
37310;DHT22;23195;47.744;7.358;2023-05-10T17:15:59;16.20;99.90
37310;DHT22;23195;47.744;7.358;2023-05-10T17:18:35;16.10;99.90
37310;DHT22;23195;47.744;7.358;2023-05-10T17:21:24;17.70;99.90
37310;DHT22;23195;47.744;7.358;2023-05-10T17:24:21;16.10;99.90
37310;DHT22;23195;47.744;7.358;2023-05-10T17:27:06;16.00;99.90
37310;DHT22;23195;47.744;7.358;2023-05-10T17:29:53;16.00;99.90
37310;DHT22;23195;47.744;7.358;2023-05-10T17:32:42;16.00;99.90
37310;DHT22;23195;47.744;7.358;2023-05-10T17:35:30;15.30;99.90
37310;DHT22;23195;47.744;7.358;2023-05-10T17:41:45;15.40;99.90
37310;DHT22;23195;47.744;7.358;2023-05-10T17:44:21;15.50;99.90
37310;DHT22;23195;47.744;7.358;2023-05-10T17:46:52;15.40;99.90
37310;DHT22;23195;47.744;7.358;2023-05-10T17:49:38;15.30;99.90
37310;DHT22;23195;47.744;7.358;2023-05-10T17:52:36;15.20;99.90
37310;DHT22;23195;47.744;7.358;2023-05-10T17:55:15;15.10;99.90
37310;DHT22;23195;47.744;7.358;2023-05-10T17:57:57;14.80;99.90
37310;DHT22;23195;47.744;7.358;2023-05-10T18:23:45;14.30;99.90
37310;DHT22;23195;47.744;7.358;2023-05-10T18:26:31;13.60;99.90
37310;DHT22;23195;47.744;7.358;2023-05-10T18:29:55;14.20;99.90
37310;DHT22;23195;47.744;7.358;2023-05-10T18:32:49;14.20;99.90
37310;DHT22;23195;47.744;7.358;2023-05-10T18:38:47;14.00;99.90
37310;DHT22;23195;47.744;7.358;2023-05-10T18:41:28;13.90;99.90
37310;DHT22;23195;47.744;7.358;2023-05-10T18:44:10;13.80;99.90
37310;DHT22;23195;47.744;7.358;2023-05-10T18:47:16;13.80;99.90
37310;DHT22;23195;47.744;7.358;2023-05-10T18:50:10;13.80;99.90
37310;DHT22;23195;47.744;7.358;2023-05-10T18:53:07;13.60;99.90
37310;DHT22;23195;47.744;7.358;2023-05-10T19:03:02;13.40;99.90
37310;DHT22;23195;47.744;7.358;2023-05-10T19:05:38;13.40;99.90
37310;DHT22;23195;47.744;7.358;2023-05-10T19:08:15;14.00;99.90
37310;DHT22;23195;47.744;7.358;2023-05-10T19:10:54;13.20;99.90
37310;DHT22;23195;47.744;7.358;2023-05-10T19:14:12;13.10;99.90
37310;DHT22;23195;47.744;7.358;2023-05-10T19:17:04;12.50;99.90
37310;DHT22;23195;47.744;7.358;2023-05-10T19:26:09;12.90;99.90
37310;DHT22;23195;47.744;7.358;2023-05-10T19:28:56;12.90;99.90
37310;DHT22;23195;47.744;7.358;2023-05-10T19:31:58;12.80;99.90
37310;DHT22;23195;47.744;7.358;2023-05-10T19:34:30;12.80;99.90
37310;DHT22;23195;47.744;7.358;2023-05-10T19:37:30;12.80;99.90
37310;DHT22;23195;47.744;7.358;2023-05-10T19:46:41;13.00;99.90
37310;DHT22;23195;47.744;7.358;2023-05-10T19:49:29;11.70;99.90
37310;DHT22;23195;47.744;7.358;2023-05-10T19:58:51;12.50;99.90
37310;DHT22;23195;47.744;7.358;2023-05-10T20:01:28;13.00;99.90
37310;DHT22;23195;47.744;7.358;2023-05-10T20:07:07;12.30;99.90
37310;DHT22;23195;47.744;7.358;2023-05-10T20:10:05;11.40;99.90
37310;DHT22;23195;47.744;7.358;2023-05-10T20:12:46;12.30;99.90
37310;DHT22;23195;47.744;7.358;2023-05-10T20:15:46;11.60;99.90
37310;DHT22;23195;47.744;7.358;2023-05-10T20:21:20;13.80;99.90
37310;DHT22;23195;47.744;7.358;2023-05-10T20:31:01;12.50;99.90
37310;DHT22;23195;47.744;7.358;2023-05-10T20:33:53;12.80;99.90
37310;DHT22;23195;47.744;7.358;2023-05-10T20:43:21;12.60;99.90
37310;DHT22;23195;47.744;7.358;2023-05-10T21:04:11;12.80;99.90
37310;DHT22;23195;47.744;7.358;2023-05-10T21:23:55;12.70;99.90
37310;DHT22;23195;47.744;7.358;2023-05-10T21:30:32;12.70;99.90
37310;DHT22;23195;47.744;7.358;2023-05-10T21:33:25;12.70;99.90
37310;DHT22;23195;47.744;7.358;2023-05-10T21:36:10;11.80;99.90
